sensor_id;sensor_type;location;lat;lon;timestamp;P1;durP1;ratioP1;P2;durP2;ratioP2
49980;SDS011;35871;51.594;7.138;2023-04-25T05:51:56;4.13;;;2.17;;
49980;SDS011;35871;51.594;7.138;2023-04-25T06:01:58;4.43;;;2.10;;
49980;SDS011;35871;51.594;7.138;2023-04-25T06:07:00;7.40;;;2.58;;
49980;SDS011;35871;51.594;7.138;2023-04-25T06:17:03;7.28;;;2.92;;
49980;SDS011;35871;51.594;7.138;2023-04-25T06:22:08;5.07;;;2.42;;
49980;SDS011;35871;51.594;7.138;2023-04-25T06:32:10;7.35;;;3.03;;
49980;SDS011;35871;51.594;7.138;2023-04-25T06:42:12;5.40;;;2.38;;
49980;SDS011;35871;51.594;7.138;2023-04-25T06:52:14;8.48;;;3.70;;
49980;SDS011;35871;51.594;7.138;2023-04-25T06:57:15;5.10;;;2.30;;
49980;SDS011;35871;51.594;7.138;2023-04-25T07:02:16;3.05;;;1.65;;
49980;SDS011;35871;51.594;7.138;2023-04-25T07:12:19;5.97;;;2.42;;
49980;SDS011;35871;51.594;7.138;2023-04-25T07:17:20;5.13;;;2.20;;
49980;SDS011;35871;51.594;7.138;2023-04-25T07:22:21;4.78;;;2.00;;
49980;SDS011;35871;51.594;7.138;2023-04-25T07:27:22;7.07;;;2.47;;
49980;SDS011;35871;51.594;7.138;2023-04-25T07:32:23;5.15;;;2.70;;
49980;SDS011;35871;51.594;7.138;2023-04-25T07:37:24;8.00;;;3.40;;
49980;SDS011;35871;51.594;7.138;2023-04-25T07:42:26;7.78;;;4.38;;
49980;SDS011;35871;51.594;7.138;2023-04-25T07:52:28;7.72;;;4.95;;
49980;SDS011;35871;51.594;7.138;2023-04-25T07:57:29;9.80;;;5.45;;
49980;SDS011;35871;51.594;7.138;2023-04-25T08:02:30;6.57;;;3.50;;
49980;SDS011;35871;51.594;7.138;2023-04-25T08:07:31;8.60;;;4.30;;
49980;SDS011;35871;51.594;7.138;2023-04-25T08:12:32;7.60;;;4.07;;
49980;SDS011;35871;51.594;7.138;2023-04-25T08:17:34;9.00;;;5.18;;
49980;SDS011;35871;51.594;7.138;2023-04-25T08:22:35;7.18;;;4.15;;
49980;SDS011;35871;51.594;7.138;2023-04-25T08:27:36;5.32;;;3.10;;
49980;SDS011;35871;51.594;7.138;2023-04-25T08:32:37;5.47;;;2.50;;
49980;SDS011;35871;51.594;7.138;2023-04-25T08:37:38;8.10;;;3.53;;
49980;SDS011;35871;51.594;7.138;2023-04-25T08:42:40;6.85;;;2.88;;
49980;SDS011;35871;51.594;7.138;2023-04-25T08:47:42;7.75;;;3.55;;
49980;SDS011;35871;51.594;7.138;2023-04-25T08:52:44;7.00;;;3.92;;
49980;SDS011;35871;51.594;7.138;2023-04-25T08:57:46;8.20;;;3.72;;
49980;SDS011;35871;51.594;7.138;2023-04-25T09:02:47;8.45;;;3.40;;
49980;SDS011;35871;51.594;7.138;2023-04-25T09:07:48;6.97;;;3.35;;
49980;SDS011;35871;51.594;7.138;2023-04-25T09:13:05;5.93;;;2.83;;
49980;SDS011;35871;51.594;7.138;2023-04-25T09:18:08;7.10;;;4.03;;
49980;SDS011;35871;51.594;7.138;2023-04-25T09:23:09;7.07;;;2.80;;
49980;SDS011;35871;51.594;7.138;2023-04-25T09:28:10;6.57;;;2.25;;
49980;SDS011;35871;51.594;7.138;2023-04-25T09:33:11;5.22;;;2.60;;
49980;SDS011;35871;51.594;7.138;2023-04-25T09:38:13;8.65;;;2.85;;
49980;SDS011;35871;51.594;7.138;2023-04-25T09:43:18;9.75;;;2.60;;
49980;SDS011;35871;51.594;7.138;2023-04-25T09:48:21;11.50;;;2.50;;
49980;SDS011;35871;51.594;7.138;2023-04-25T09:53:22;9.82;;;2.60;;
49980;SDS011;35871;51.594;7.138;2023-04-25T09:58:23;7.47;;;2.45;;
49980;SDS011;35871;51.594;7.138;2023-04-25T10:03:26;7.97;;;2.03;;
49980;SDS011;35871;51.594;7.138;2023-04-25T10:08:39;5.63;;;1.95;;
49980;SDS011;35871;51.594;7.138;2023-04-25T10:14:18;4.75;;;1.85;;
49980;SDS011;35871;51.594;7.138;2023-04-25T10:19:20;5.28;;;2.15;;
49980;SDS011;35871;51.594;7.138;2023-04-25T10:24:22;5.88;;;2.55;;
49980;SDS011;35871;51.594;7.138;2023-04-25T10:29:24;4.78;;;1.67;;
49980;SDS011;35871;51.594;7.138;2023-04-25T10:34:41;5.28;;;1.80;;
49980;SDS011;35871;51.594;7.138;2023-04-25T10:39:42;5.63;;;1.80;;
49980;SDS011;35871;51.594;7.138;2023-04-25T10:44:47;6.03;;;1.85;;
49980;SDS011;35871;51.594;7.138;2023-04-25T10:50:04;5.50;;;2.08;;
49980;SDS011;35871;51.594;7.138;2023-04-25T10:55:06;4.38;;;2.10;;
49980;SDS011;35871;51.594;7.138;2023-04-25T11:00:14;4.40;;;1.70;;
49980;SDS011;35871;51.594;7.138;2023-04-25T11:05:18;5.78;;;2.63;;
49980;SDS011;35871;51.594;7.138;2023-04-25T11:10:24;4.32;;;1.42;;
49980;SDS011;35871;51.594;7.138;2023-04-25T11:15:26;5.35;;;2.22;;
49980;SDS011;35871;51.594;7.138;2023-04-25T11:20:27;3.60;;;1.30;;
49980;SDS011;35871;51.594;7.138;2023-04-25T11:25:28;3.30;;;1.48;;
49980;SDS011;35871;51.594;7.138;2023-04-25T11:30:30;4.85;;;1.48;;
49980;SDS011;35871;51.594;7.138;2023-04-25T11:35:31;2.97;;;1.45;;
49980;SDS011;35871;51.594;7.138;2023-04-25T11:40:33;2.75;;;1.50;;
49980;SDS011;35871;51.594;7.138;2023-04-25T11:45:36;2.88;;;1.30;;
49980;SDS011;35871;51.594;7.138;2023-04-25T11:50:38;2.75;;;1.27;;
49980;SDS011;35871;51.594;7.138;2023-04-25T11:55:39;2.40;;;0.88;;
49980;SDS011;35871;51.594;7.138;2023-04-25T12:00:41;2.83;;;1.20;;
49980;SDS011;35871;51.594;7.138;2023-04-25T12:05:43;2.15;;;1.00;;
49980;SDS011;35871;51.594;7.138;2023-04-25T12:10:45;2.67;;;0.80;;
49980;SDS011;35871;51.594;7.138;2023-04-25T12:15:47;2.85;;;1.20;;
49980;SDS011;35871;51.594;7.138;2023-04-25T12:20:48;2.85;;;1.10;;
49980;SDS011;35871;51.594;7.138;2023-04-25T12:25:50;3.83;;;1.10;;
49980;SDS011;35871;51.594;7.138;2023-04-25T12:35:52;2.45;;;1.20;;
49980;SDS011;35871;51.594;7.138;2023-04-25T12:40:53;2.72;;;0.90;;
49980;SDS011;35871;51.594;7.138;2023-04-25T12:45:55;2.90;;;1.10;;
49980;SDS011;35871;51.594;7.138;2023-04-25T12:50:56;2.58;;;1.15;;
49980;SDS011;35871;51.594;7.138;2023-04-25T12:55:57;2.30;;;1.10;;
49980;SDS011;35871;51.594;7.138;2023-04-25T13:05:59;1.75;;;0.88;;
49980;SDS011;35871;51.594;7.138;2023-04-25T13:11:00;3.25;;;1.00;;
49980;SDS011;35871;51.594;7.138;2023-04-25T13:16:01;3.08;;;1.10;;
49980;SDS011;35871;51.594;7.138;2023-04-25T13:21:02;3.75;;;1.13;;
49980;SDS011;35871;51.594;7.138;2023-04-25T13:26:04;3.45;;;1.10;;
49980;SDS011;35871;51.594;7.138;2023-04-25T13:31:05;1.95;;;0.82;;
49980;SDS011;35871;51.594;7.138;2023-04-25T13:36:06;2.63;;;1.15;;
49980;SDS011;35871;51.594;7.138;2023-04-25T13:41:07;4.22;;;1.42;;
49980;SDS011;35871;51.594;7.138;2023-04-25T13:46:11;3.97;;;1.35;;
49980;SDS011;35871;51.594;7.138;2023-04-25T13:51:13;3.28;;;1.15;;
49980;SDS011;35871;51.594;7.138;2023-04-25T13:56:14;2.63;;;1.00;;
49980;SDS011;35871;51.594;7.138;2023-04-25T14:01:15;3.90;;;1.00;;
49980;SDS011;35871;51.594;7.138;2023-04-25T14:06:16;4.10;;;1.02;;
49980;SDS011;35871;51.594;7.138;2023-04-25T14:11:22;3.03;;;1.20;;
49980;SDS011;35871;51.594;7.138;2023-04-25T14:16:23;2.35;;;1.00;;
49980;SDS011;35871;51.594;7.138;2023-04-25T14:21:24;3.38;;;1.20;;
49980;SDS011;35871;51.594;7.138;2023-04-25T14:26:26;2.63;;;1.10;;
49980;SDS011;35871;51.594;7.138;2023-04-25T14:31:27;5.18;;;2.95;;
49980;SDS011;35871;51.594;7.138;2023-04-25T14:36:28;2.88;;;1.00;;
49980;SDS011;35871;51.594;7.138;2023-04-25T14:41:30;2.70;;;1.20;;
49980;SDS011;35871;51.594;7.138;2023-04-25T14:46:31;3.33;;;1.30;;
49980;SDS011;35871;51.594;7.138;2023-04-25T14:51:33;4.22;;;0.95;;
49980;SDS011;35871;51.594;7.138;2023-04-25T15:01:35;6.57;;;3.15;;
49980;SDS011;35871;51.594;7.138;2023-04-25T15:11:37;4.10;;;1.42;;
49980;SDS011;35871;51.594;7.138;2023-04-25T15:16:38;2.35;;;1.05;;
49980;SDS011;35871;51.594;7.138;2023-04-25T15:21:40;2.42;;;0.95;;
49980;SDS011;35871;51.594;7.138;2023-04-25T15:26:41;3.50;;;1.25;;
49980;SDS011;35871;51.594;7.138;2023-04-25T15:31:42;2.38;;;1.40;;
49980;SDS011;35871;51.594;7.138;2023-04-25T15:36:43;2.65;;;1.10;;
49980;SDS011;35871;51.594;7.138;2023-04-25T15:41:44;2.15;;;0.85;;
49980;SDS011;35871;51.594;7.138;2023-04-25T15:46:45;3.33;;;1.65;;
49980;SDS011;35871;51.594;7.138;2023-04-25T15:51:49;2.97;;;1.23;;
49980;SDS011;35871;51.594;7.138;2023-04-25T15:56:50;3.17;;;1.27;;
49980;SDS011;35871;51.594;7.138;2023-04-25T16:06:52;5.53;;;2.38;;
49980;SDS011;35871;51.594;7.138;2023-04-25T16:16:54;4.13;;;1.33;;
49980;SDS011;35871;51.594;7.138;2023-04-25T16:26:56;4.03;;;1.20;;
49980;SDS011;35871;51.594;7.138;2023-04-25T16:31:58;3.78;;;1.95;;
49980;SDS011;35871;51.594;7.138;2023-04-25T16:36:59;4.10;;;1.20;;
49980;SDS011;35871;51.594;7.138;2023-04-25T16:42:00;4.03;;;1.20;;
49980;SDS011;35871;51.594;7.138;2023-04-25T16:52:04;4.22;;;1.35;;
49980;SDS011;35871;51.594;7.138;2023-04-25T16:57:05;3.05;;;1.10;;
49980;SDS011;35871;51.594;7.138;2023-04-25T17:02:10;1.92;;;0.90;;
49980;SDS011;35871;51.594;7.138;2023-04-25T17:07:11;2.60;;;0.95;;
49980;SDS011;35871;51.594;7.138;2023-04-25T17:17:13;3.17;;;1.20;;
49980;SDS011;35871;51.594;7.138;2023-04-25T17:22:15;3.05;;;1.38;;
49980;SDS011;35871;51.594;7.138;2023-04-25T17:32:17;3.38;;;1.40;;
49980;SDS011;35871;51.594;7.138;2023-04-25T17:42:20;4.30;;;1.70;;
49980;SDS011;35871;51.594;7.138;2023-04-25T17:52:22;4.93;;;2.40;;
49980;SDS011;35871;51.594;7.138;2023-04-25T17:57:24;7.28;;;2.72;;
49980;SDS011;35871;51.594;7.138;2023-04-25T18:02:35;4.82;;;1.77;;
49980;SDS011;35871;51.594;7.138;2023-04-25T18:07:37;4.35;;;2.00;;
49980;SDS011;35871;51.594;7.138;2023-04-25T18:12:49;4.38;;;1.80;;
49980;SDS011;35871;51.594;7.138;2023-04-25T18:17:50;4.03;;;1.92;;
49980;SDS011;35871;51.594;7.138;2023-04-25T18:23:00;5.45;;;2.13;;
49980;SDS011;35871;51.594;7.138;2023-04-25T18:28:07;3.72;;;1.52;;
49980;SDS011;35871;51.594;7.138;2023-04-25T18:33:14;4.53;;;2.90;;
49980;SDS011;35871;51.594;7.138;2023-04-25T18:38:41;3.80;;;1.50;;
49980;SDS011;35871;51.594;7.138;2023-04-25T18:44:14;2.72;;;1.70;;
49980;SDS011;35871;51.594;7.138;2023-04-25T18:49:15;2.97;;;1.35;;
49980;SDS011;35871;51.594;7.138;2023-04-25T18:54:16;3.45;;;1.35;;
49980;SDS011;35871;51.594;7.138;2023-04-25T19:04:45;3.67;;;1.73;;
49980;SDS011;35871;51.594;7.138;2023-04-25T19:09:54;2.70;;;1.60;;
49980;SDS011;35871;51.594;7.138;2023-04-25T19:15:34;3.10;;;1.60;;
